createdAt,value
2022-11-01T00:00:25.110Z,101528.33
2022-11-01T00:03:17.259Z,101525.68
2022-11-01T00:05:50.074Z,101525.17
2022-11-01T00:08:22.152Z,101527.23
2022-11-01T00:10:54.415Z,101527.79
2022-11-01T00:13:26.531Z,101526.86
2022-11-01T00:15:58.672Z,101526.00
2022-11-01T00:18:30.771Z,101525.79
2022-11-01T00:21:02.921Z,101525.25
2022-11-01T00:23:35.071Z,101526.34
2022-11-01T00:26:07.450Z,101528.29
2022-11-01T00:28:39.681Z,101524.86
2022-11-01T00:31:12.842Z,101525.44
2022-11-01T00:33:45.255Z,101529.40
2022-11-01T00:36:17.681Z,101532.30
2022-11-01T00:38:52.374Z,101531.30
2022-11-01T00:41:24.872Z,101537.50
2022-11-01T00:43:57.004Z,101538.59
2022-11-01T00:46:29.330Z,101538.88
2022-11-01T00:49:01.673Z,101542.08
2022-11-01T00:51:33.773Z,101537.55
2022-11-01T00:54:06.103Z,101537.43
2022-11-01T00:56:38.418Z,101535.10
2022-11-01T00:59:10.478Z,101531.52
2022-11-01T01:01:42.821Z,101531.30
2022-11-01T01:04:14.973Z,101525.85
2022-11-01T01:06:47.151Z,101527.85
2022-11-01T01:09:19.402Z,101528.83
2022-11-01T01:11:51.700Z,101524.42
2022-11-01T01:14:27.456Z,101520.16
2022-11-01T01:17:02.297Z,101520.64
2022-11-01T01:19:34.507Z,101520.00
2022-11-01T01:22:06.652Z,101520.77
2022-11-01T01:24:38.959Z,101525.75
2022-11-01T01:27:11.038Z,101524.00
2022-11-01T01:29:44.522Z,101523.52
2022-11-01T01:32:17.299Z,101520.60
2022-11-01T01:34:49.519Z,101520.35
2022-11-01T01:37:22.139Z,101519.92
2022-11-01T01:39:52.687Z,101517.59
2022-11-01T01:42:30.291Z,101520.30
2022-11-01T01:45:31.635Z,101518.84
2022-11-01T01:48:12.658Z,101516.48
2022-11-01T01:50:48.847Z,101519.21
2022-11-01T01:53:24.699Z,101520.16
2022-11-01T01:56:00.603Z,101517.18
2022-11-01T01:58:34.884Z,101520.13
2022-11-01T02:01:07.403Z,101523.10
2022-11-01T02:03:38.030Z,101523.34
2022-11-01T02:06:13.435Z,101524.67
2022-11-01T02:08:48.410Z,101527.69
2022-11-01T02:11:21.818Z,101525.35
2022-11-01T02:13:54.502Z,101528.92
2022-11-01T02:16:34.754Z,101529.39
2022-11-01T02:19:37.488Z,101525.76
2022-11-01T02:22:14.307Z,101526.27
2022-11-01T02:27:55.495Z,101529.04
2022-11-01T02:30:27.754Z,101535.63
2022-11-01T02:33:07.407Z,101534.82
2022-11-01T02:35:48.170Z,101537.08
2022-11-01T02:38:25.055Z,101538.79
2022-11-01T02:41:03.676Z,101536.56
2022-11-01T02:43:41.369Z,101538.70
2022-11-01T02:46:32.048Z,101536.29
2022-11-01T02:49:05.590Z,101535.31
2022-11-01T02:51:39.233Z,101538.47
2022-11-01T02:54:18.678Z,101539.27
2022-11-01T02:56:51.148Z,101542.78
2022-11-01T02:59:26.910Z,101551.09
2022-11-01T03:02:10.489Z,101552.86
2022-11-01T03:04:43.068Z,101551.94
2022-11-01T03:07:16.855Z,101555.80
2022-11-01T03:09:48.997Z,101554.23
2022-11-01T03:12:25.760Z,101552.08
2022-11-01T03:15:02.415Z,101551.15
2022-11-01T03:17:39.283Z,101549.94
2022-11-01T03:20:16.666Z,101549.66
2022-11-01T03:22:52.577Z,101551.70
2022-11-01T03:25:41.841Z,101553.79
2022-11-01T03:28:19.092Z,101554.98
2022-11-01T03:30:55.028Z,101557.42
2022-11-01T03:33:28.629Z,101558.14
2022-11-01T03:36:03.202Z,101553.19
2022-11-01T03:38:38.730Z,101553.61
2022-11-01T03:41:14.998Z,101557.77
2022-11-01T03:43:47.614Z,101552.83
2022-11-01T03:46:19.885Z,101548.94
2022-11-01T03:48:52.151Z,101553.34
2022-11-01T03:51:24.453Z,101554.87
2022-11-01T03:53:56.604Z,101552.11
2022-11-01T03:56:28.859Z,101553.91
2022-11-01T03:59:01.121Z,101556.50
2022-11-01T04:01:33.675Z,101557.71
2022-11-01T04:04:06.193Z,101557.05
2022-11-01T04:06:38.387Z,101556.30
2022-11-01T04:09:11.088Z,101553.67
2022-11-01T04:11:41.584Z,101555.04
2022-11-01T04:14:31.499Z,101553.87
2022-11-01T04:17:21.565Z,101553.00
2022-11-01T04:20:11.612Z,101553.08
2022-11-01T04:22:43.814Z,101549.46
2022-11-01T04:25:15.935Z,101551.41
2022-11-01T04:27:48.148Z,101550.20
2022-11-01T04:30:20.416Z,101550.80
2022-11-01T04:32:52.871Z,101552.31
2022-11-01T04:35:25.384Z,101551.36
2022-11-01T04:38:01.296Z,101549.45
2022-11-01T04:40:34.052Z,101552.76
2022-11-01T04:43:06.251Z,101551.90
2022-11-01T04:45:40.952Z,101552.33
2022-11-01T04:48:16.925Z,101553.54
2022-11-01T04:50:49.158Z,101557.23
2022-11-01T04:53:21.279Z,101556.77
2022-11-01T04:55:53.398Z,101554.89
2022-11-01T04:58:25.613Z,101557.08
2022-11-01T05:00:57.807Z,101554.54
2022-11-01T05:03:29.992Z,101557.21
2022-11-01T05:06:03.156Z,101560.73
2022-11-01T05:08:35.372Z,101557.21
2022-11-01T05:11:07.658Z,101560.35
2022-11-01T05:13:39.765Z,101561.20
2022-11-01T05:16:19.368Z,101565.75
2022-11-01T05:18:52.505Z,101566.22
2022-11-01T05:21:24.667Z,101567.51
2022-11-01T05:23:56.897Z,101571.67
2022-11-01T05:26:29.003Z,101569.60
2022-11-01T05:29:08.754Z,101575.85
2022-11-01T05:31:45.811Z,101580.52
2022-11-01T05:34:17.992Z,101581.96
2022-11-01T05:36:50.317Z,101576.54
2022-11-01T05:39:22.466Z,101580.70
2022-11-01T05:41:56.958Z,101578.13
2022-11-01T05:44:32.232Z,101580.08
2022-11-01T05:47:06.896Z,101580.30
2022-11-01T05:49:44.991Z,101579.20
2022-11-01T05:52:21.022Z,101585.70
2022-11-01T05:54:51.726Z,101585.81
2022-11-01T05:57:23.888Z,101586.83
2022-11-01T05:59:56.125Z,101590.31
2022-11-01T06:02:28.554Z,101592.01
2022-11-01T06:05:02.640Z,101593.40
2022-11-01T06:07:38.018Z,101595.41
2022-11-01T06:10:11.679Z,101598.02
2022-11-01T06:12:43.888Z,101601.23
2022-11-01T06:15:19.356Z,101605.89
2022-11-01T06:17:53.695Z,101604.36
2022-11-01T06:20:29.679Z,101605.45
2022-11-01T06:23:09.267Z,101606.29
2022-11-01T06:25:45.972Z,101607.27
2022-11-01T06:28:20.506Z,101606.77
2022-11-01T06:30:53.134Z,101606.86
2022-11-01T06:33:27.412Z,101607.33
2022-11-01T06:36:04.969Z,101608.27
2022-11-01T06:38:42.049Z,101612.35
2022-11-01T06:41:15.471Z,101608.77
2022-11-01T06:43:50.940Z,101604.70
2022-11-01T06:46:24.083Z,101606.84
2022-11-01T06:48:58.109Z,101605.64
2022-11-01T06:51:30.618Z,101605.54
2022-11-01T06:54:01.247Z,101605.77
2022-11-01T06:56:36.148Z,101606.45
2022-11-01T06:59:09.902Z,101605.88
2022-11-01T07:01:42.192Z,101608.49
2022-11-01T07:04:17.156Z,101608.08
2022-11-01T07:06:50.670Z,101608.67
2022-11-01T07:09:22.580Z,101607.60
2022-11-01T07:11:58.176Z,101608.24
2022-11-01T07:14:34.563Z,101606.93
2022-11-01T07:17:09.932Z,101604.61
2022-11-01T07:19:44.098Z,101605.80
2022-11-01T07:22:16.524Z,101608.43
2022-11-01T07:25:07.235Z,101605.19
2022-11-01T07:27:39.881Z,101611.30
2022-11-01T07:30:16.804Z,101604.88
2022-11-01T07:32:49.071Z,101601.13
2022-11-01T07:35:21.408Z,101598.83
2022-11-01T07:37:53.538Z,101600.52
2022-11-01T07:40:28.054Z,101596.63
2022-11-01T07:43:01.589Z,101595.98
2022-11-01T07:45:35.160Z,101597.42
2022-11-01T07:48:11.961Z,101595.20
2022-11-01T07:50:45.126Z,101595.81
2022-11-01T07:53:20.653Z,101591.95
2022-11-01T07:55:53.222Z,101597.78
2022-11-01T07:58:27.929Z,101591.92
2022-11-01T08:01:00.651Z,101590.54
2022-11-01T08:03:33.303Z,101586.48
2022-11-01T08:06:05.619Z,101583.72
2022-11-01T08:08:38.004Z,101583.77
2022-11-01T08:11:10.268Z,101581.23
2022-11-01T08:13:42.481Z,101578.53
2022-11-01T08:16:18.597Z,101576.23
2022-11-01T08:18:51.692Z,101573.27
2022-11-01T08:21:24.375Z,101568.05
2022-11-01T08:23:56.571Z,101562.78
2022-11-01T08:26:29.006Z,101561.34
2022-11-01T08:29:01.156Z,101559.86
2022-11-01T08:31:33.522Z,101557.56
2022-11-01T08:34:05.754Z,101562.43
2022-11-01T08:36:37.991Z,101560.45
2022-11-01T08:41:51.261Z,101556.17
2022-11-01T08:44:23.381Z,101554.71
2022-11-01T08:46:58.974Z,101555.13
2022-11-01T08:49:31.302Z,101554.56
2022-11-01T08:52:03.997Z,101554.40
2022-11-01T08:54:37.544Z,101550.07
2022-11-01T08:57:09.948Z,101547.54
2022-11-01T08:59:42.100Z,101549.95
2022-11-01T09:02:14.740Z,101550.83
2022-11-01T09:04:45.261Z,101546.65
2022-11-01T09:07:17.543Z,101547.77
2022-11-01T09:09:49.959Z,101548.99
2022-11-01T09:12:24.735Z,101544.00
2022-11-01T09:14:59.764Z,101542.02
2022-11-01T09:17:32.009Z,101538.69
2022-11-01T09:20:05.705Z,101543.00
2022-11-01T09:22:37.566Z,101541.88
2022-11-01T09:25:12.770Z,101543.43
2022-11-01T09:27:44.943Z,101540.48
2022-11-01T09:30:17.345Z,101539.94
2022-11-01T09:32:49.543Z,101537.17
2022-11-01T09:35:22.081Z,101535.98
2022-11-01T09:38:00.269Z,101529.80
2022-11-01T09:40:39.420Z,101524.52
2022-11-01T09:43:14.344Z,101517.29
2022-11-01T09:45:46.613Z,101515.46
2022-11-01T09:48:19.087Z,101516.13
2022-11-01T10:02:09.872Z,101504.91
2022-11-01T10:05:02.132Z,101502.09
2022-11-01T10:07:42.858Z,101503.23
2022-11-01T10:10:28.295Z,101503.59
2022-11-01T10:13:14.336Z,101497.65
2022-11-01T10:15:53.879Z,101495.45
2022-11-01T10:18:36.948Z,101495.58
2022-11-01T10:21:14.339Z,101492.31
2022-11-01T10:23:50.148Z,101489.99
2022-11-01T10:26:26.817Z,101488.67
2022-11-01T10:29:03.619Z,101486.98
2022-11-01T10:31:41.252Z,101484.15
2022-11-01T10:34:20.317Z,101482.95
2022-11-01T10:37:31.211Z,101477.66
2022-11-01T10:40:09.137Z,101480.70
2022-11-01T10:42:42.220Z,101475.14
2022-11-01T10:45:16.322Z,101469.87
2022-11-01T10:47:49.504Z,101467.52
2022-11-01T10:50:24.128Z,101463.38
2022-11-01T10:52:58.447Z,101457.31
2022-11-01T10:55:35.502Z,101456.34
2022-11-01T10:58:11.699Z,101452.65
2022-11-01T11:00:45.004Z,101443.02
2022-11-01T11:03:22.197Z,101437.20
2022-11-01T11:05:55.264Z,101436.67
2022-11-01T11:08:27.520Z,101434.04
2022-11-01T11:11:04.028Z,101431.66
2022-11-01T11:13:38.085Z,101428.28
2022-11-01T11:16:19.839Z,101430.45
2022-11-01T11:19:06.407Z,101424.31
2022-11-01T11:21:38.792Z,101416.35
2022-11-01T11:24:19.845Z,101418.16
2022-11-01T11:26:54.619Z,101409.63
2022-11-01T11:29:48.742Z,101403.12
2022-11-01T11:32:23.822Z,101401.86
2022-11-01T11:34:58.946Z,101401.61
2022-11-01T11:37:33.127Z,101397.83
2022-11-01T11:40:24.580Z,101398.70
2022-11-01T11:42:58.257Z,101395.85
2022-11-01T11:45:32.471Z,101394.42
2022-11-01T11:48:20.501Z,101394.60
2022-11-01T11:51:03.269Z,101390.07
2022-11-01T11:53:35.517Z,101387.29
2022-11-01T11:56:09.564Z,101386.48
2022-11-01T11:58:44.161Z,101383.51
2022-11-01T12:01:21.354Z,101381.54
2022-11-01T12:03:56.976Z,101378.30
2022-11-01T12:06:30.319Z,101378.27
2022-11-01T12:09:04.027Z,101375.66
2022-11-01T12:11:42.847Z,101369.31
2022-11-01T12:14:26.335Z,101366.52
2022-11-01T12:16:58.497Z,101366.71
2022-11-01T12:19:31.985Z,101361.94
2022-11-01T12:22:05.487Z,101363.41
2022-11-01T12:24:44.819Z,101358.48
2022-11-01T12:27:21.845Z,101353.30
2022-11-01T12:29:56.644Z,101351.79
2022-11-01T12:32:30.494Z,101350.20
2022-11-01T12:35:05.969Z,101349.18
2022-11-01T12:37:48.611Z,101346.89
2022-11-01T12:40:23.603Z,101348.98
2022-11-01T12:43:01.357Z,101346.48
2022-11-01T12:45:35.876Z,101347.06
2022-11-01T12:48:24.577Z,101343.35
2022-11-01T12:51:21.536Z,101344.25
2022-11-01T12:53:59.663Z,101347.91
2022-11-01T12:56:31.773Z,101344.13
2022-11-01T12:59:04.691Z,101340.90
2022-11-01T13:01:42.113Z,101336.17
2022-11-01T13:04:21.589Z,101338.67
2022-11-01T13:07:11.064Z,101337.33
2022-11-01T13:09:50.800Z,101336.30
2022-11-01T13:12:29.128Z,101334.55
2022-11-01T13:15:08.079Z,101334.23
2022-11-01T13:17:46.874Z,101335.73
2022-11-01T13:20:29.105Z,101331.48
2022-11-01T13:23:09.803Z,101327.98
2022-11-01T13:25:46.271Z,101327.02
2022-11-01T13:28:28.864Z,101327.20
2022-11-01T13:31:05.217Z,101325.11
2022-11-01T13:33:43.288Z,101324.52
2022-11-01T13:36:21.840Z,101322.02
2022-11-01T13:39:03.648Z,101321.50
2022-11-01T13:41:40.327Z,101327.85
2022-11-01T13:44:16.915Z,101329.65
2022-11-01T13:47:06.048Z,101328.49
2022-11-01T13:50:09.488Z,101329.69
2022-11-01T13:52:46.396Z,101327.26
2022-11-01T13:55:23.479Z,101323.79
2022-11-01T13:57:56.236Z,101323.89
2022-11-01T14:00:44.322Z,101323.04
2022-11-01T14:08:16.332Z,101320.52
2022-11-01T14:10:53.027Z,101318.64
2022-11-01T14:13:37.821Z,101315.73
2022-11-01T14:16:23.987Z,101316.87
2022-11-01T14:19:30.620Z,101319.00
2022-11-01T14:22:02.913Z,101320.50
2022-11-01T14:24:35.560Z,101321.08
2022-11-01T14:27:25.069Z,101322.25
2022-11-01T14:29:58.307Z,101318.30
2022-11-01T14:32:32.124Z,101315.24
2022-11-01T14:35:10.270Z,101316.55
2022-11-01T14:37:44.292Z,101316.15
2022-11-01T14:40:34.645Z,101311.00
2022-11-01T14:43:15.524Z,101312.60
2022-11-01T14:45:49.932Z,101311.91
2022-11-01T14:48:25.302Z,101308.23
2022-11-01T14:51:03.291Z,101306.33
2022-11-01T14:53:37.534Z,101305.08
2022-11-01T14:56:16.805Z,101304.08
2022-11-01T14:58:49.642Z,101305.23
2022-11-01T15:08:12.938Z,101303.77
2022-11-01T15:10:51.872Z,101304.44
2022-11-01T15:13:27.908Z,101305.24
2022-11-01T15:16:08.956Z,101305.02
2022-11-01T15:19:04.677Z,101304.41
2022-11-01T15:22:03.706Z,101302.52
2022-11-01T15:24:39.537Z,101300.55
2022-11-01T15:27:26.112Z,101302.36
2022-11-01T15:29:59.734Z,101300.85
2022-11-01T15:32:36.886Z,101304.05
2022-11-01T15:35:24.752Z,101304.67
2022-11-01T15:38:03.002Z,101304.05
2022-11-01T15:40:58.528Z,101303.55
2022-11-01T15:43:39.649Z,101304.55
2022-11-01T15:46:13.331Z,101301.78
2022-11-01T15:48:53.039Z,101296.66
2022-11-01T15:51:38.894Z,101299.15
2022-11-01T15:54:40.057Z,101299.98
2022-11-01T15:57:20.044Z,101303.77
2022-11-01T15:59:57.495Z,101302.58
2022-11-01T16:02:35.704Z,101305.15
2022-11-01T16:05:09.720Z,101301.48
2022-11-01T16:07:42.931Z,101297.20
2022-11-01T16:10:20.881Z,101301.40
2022-11-01T16:12:54.221Z,101297.80
2022-11-01T16:15:29.244Z,101297.40
2022-11-01T16:18:02.886Z,101299.71
2022-11-01T16:20:37.764Z,101296.90
2022-11-01T16:23:12.694Z,101295.03
2022-11-01T16:25:44.845Z,101301.69
2022-11-01T16:28:39.197Z,101302.00
2022-11-01T16:31:23.910Z,101303.49
2022-11-01T16:33:57.949Z,101303.69
2022-11-01T16:36:42.989Z,101309.41
2022-11-01T16:39:31.331Z,101315.77
2022-11-01T16:42:03.649Z,101314.02
2022-11-01T16:44:35.910Z,101315.80
2022-11-01T16:47:08.087Z,101316.81
2022-11-01T16:49:48.176Z,101317.45
2022-11-01T16:52:20.848Z,101315.94
2022-11-01T16:54:53.620Z,101307.70
2022-11-01T16:57:28.332Z,101311.05
2022-11-01T17:00:01.866Z,101309.36
2022-11-01T17:02:35.097Z,101311.48
2022-11-01T17:05:17.350Z,101314.29
2022-11-01T17:07:49.506Z,101317.08
2022-11-01T17:10:25.712Z,101314.91
2022-11-01T17:12:58.586Z,101317.75
2022-11-01T17:15:39.461Z,101319.81
2022-11-01T17:18:14.313Z,101317.92
2022-11-01T17:20:49.652Z,101314.12
2022-11-01T17:23:25.040Z,101311.82
2022-11-01T17:25:58.178Z,101308.48
2022-11-01T17:28:28.893Z,101307.94
2022-11-01T17:31:01.982Z,101310.91
2022-11-01T17:33:35.026Z,101318.09
2022-11-01T17:36:08.457Z,101313.09
2022-11-01T17:38:42.506Z,101314.05
2022-11-01T17:41:21.176Z,101313.02
2022-11-01T17:43:53.482Z,101309.30
2022-11-01T17:46:27.752Z,101305.62
2022-11-01T17:49:01.346Z,101305.98
2022-11-01T17:51:34.297Z,101306.65
2022-11-01T17:54:06.727Z,101308.00
2022-11-01T17:56:37.206Z,101307.45
2022-11-01T17:59:10.076Z,101311.70
2022-11-01T18:02:01.604Z,101311.61
2022-11-01T18:04:36.645Z,101308.83
2022-11-01T18:07:12.617Z,101311.38
2022-11-01T18:09:45.003Z,101308.30
2022-11-01T18:12:22.876Z,101309.38
2022-11-01T18:15:05.907Z,101309.47
2022-11-01T18:17:46.811Z,101302.11
2022-11-01T18:20:31.881Z,101302.48
2022-11-01T18:23:07.275Z,101299.91
2022-11-01T18:25:43.646Z,101298.27
2022-11-01T18:28:17.949Z,101299.73
2022-11-01T18:30:54.967Z,101293.64
2022-11-01T18:33:34.439Z,101294.08
2022-11-01T18:36:10.112Z,101294.06
2022-11-01T18:38:45.529Z,101292.17
2022-11-01T18:41:23.076Z,101291.41
2022-11-01T18:43:58.284Z,101292.11
2022-11-01T18:46:37.805Z,101290.30
2022-11-01T18:49:13.594Z,101296.95
2022-11-01T18:51:54.171Z,101299.27
2022-11-01T18:54:31.093Z,101294.39
2022-11-01T18:57:17.274Z,101301.11
2022-11-01T18:59:54.906Z,101297.73
2022-11-01T19:02:33.222Z,101298.89
2022-11-01T19:05:51.841Z,101297.11
2022-11-01T19:08:39.229Z,101293.98
2022-11-01T19:11:15.569Z,101291.75
2022-11-01T19:13:52.653Z,101287.23
2022-11-01T19:19:25.116Z,101295.94
2022-11-01T19:22:24.936Z,101293.58
2022-11-01T19:25:02.008Z,101297.13
2022-11-01T19:27:38.702Z,101296.07
2022-11-01T19:30:34.097Z,101295.52
2022-11-01T19:33:17.385Z,101290.71
2022-11-01T19:35:58.256Z,101287.82
2022-11-01T19:38:59.085Z,101286.95
2022-11-01T19:41:37.793Z,101284.84
2022-11-01T19:44:18.498Z,101286.48
2022-11-01T19:46:57.237Z,101283.42
2022-11-01T19:49:35.642Z,101289.80
2022-11-01T19:52:30.075Z,101290.90
2022-11-01T19:55:48.522Z,101290.98
2022-11-01T19:58:49.038Z,101285.00
2022-11-01T20:01:47.077Z,101282.23
2022-11-01T20:04:29.587Z,101283.09
2022-11-01T20:07:17.105Z,101281.52
2022-11-01T20:09:58.620Z,101283.47
2022-11-01T20:12:35.016Z,101287.27
2022-11-01T20:15:17.380Z,101284.58
2022-11-01T20:17:54.632Z,101285.72
2022-11-01T20:20:59.306Z,101280.17
2022-11-01T20:23:42.283Z,101276.30
2022-11-01T20:26:17.789Z,101276.13
2022-11-01T20:28:56.436Z,101275.15
2022-11-01T20:31:30.838Z,101272.46
2022-11-01T20:34:12.435Z,101272.30
2022-11-01T20:36:49.602Z,101271.53
2022-11-01T20:39:40.112Z,101264.81
2022-11-01T20:42:33.707Z,101259.89
2022-11-01T20:45:12.864Z,101256.59
2022-11-01T20:48:02.532Z,101259.79
2022-11-01T20:50:42.614Z,101254.01
2022-11-01T20:53:29.846Z,101252.35
2022-11-01T20:56:15.389Z,101250.15
2022-11-01T20:58:50.120Z,101248.16
2022-11-01T21:01:25.903Z,101245.90
2022-11-01T21:03:58.774Z,101248.67
2022-11-01T21:06:32.840Z,101248.40
2022-11-01T21:09:33.079Z,101246.07
2022-11-01T21:12:25.756Z,101243.79
2022-11-01T21:15:03.821Z,101242.35
2022-11-01T21:17:38.172Z,101240.56
2022-11-01T21:20:26.571Z,101238.86
2022-11-01T21:23:02.679Z,101239.88
2022-11-01T21:25:38.289Z,101234.30
2022-11-01T21:28:22.623Z,101237.21
2022-11-01T21:31:27.035Z,101238.18
2022-11-01T21:34:03.461Z,101236.88
2022-11-01T21:37:03.997Z,101243.25
2022-11-01T21:39:39.658Z,101241.55
2022-11-01T21:42:36.652Z,101244.91
2022-11-01T21:45:31.483Z,101236.31
2022-11-01T21:48:22.028Z,101241.08
2022-11-01T21:51:04.438Z,101239.45
2022-11-01T21:53:37.953Z,101236.98
2022-11-01T21:56:11.095Z,101228.41
2022-11-01T21:58:45.568Z,101227.02
2022-11-01T22:01:18.281Z,101223.94
2022-11-01T22:03:56.229Z,101224.29
2022-11-01T22:06:28.864Z,101223.05
2022-11-01T22:08:59.470Z,101222.21
2022-11-01T22:11:34.787Z,101223.73
2022-11-01T22:14:09.476Z,101220.93
2022-11-01T22:16:43.502Z,101221.55
2022-11-01T22:19:19.631Z,101218.60
2022-11-01T22:22:09.871Z,101217.02
2022-11-01T22:24:47.842Z,101215.93
2022-11-01T22:27:23.676Z,101215.23
2022-11-01T22:29:59.721Z,101210.13
2022-11-01T22:32:31.989Z,101205.20
2022-11-01T22:35:04.370Z,101201.04
2022-11-01T22:37:37.790Z,101201.64
2022-11-01T22:40:15.682Z,101194.11
2022-11-01T22:42:48.426Z,101200.16
2022-11-01T22:45:21.103Z,101197.91
2022-11-01T22:47:53.291Z,101193.29
2022-11-01T22:50:28.970Z,101197.07
2022-11-01T22:53:01.523Z,101195.36
2022-11-01T22:55:40.585Z,101185.83
2022-11-01T22:58:29.185Z,101182.39
2022-11-01T23:01:02.783Z,101181.14
2022-11-01T23:04:10.641Z,101177.98
2022-11-01T23:06:43.392Z,101175.02
2022-11-01T23:09:16.768Z,101170.74
2022-11-01T23:12:13.687Z,101165.17
2022-11-01T23:14:46.989Z,101162.83
2022-11-01T23:17:32.074Z,101160.74
2022-11-01T23:20:05.105Z,101160.38
2022-11-01T23:22:38.505Z,101160.29
2022-11-01T23:25:12.626Z,101160.39
2022-11-01T23:27:46.369Z,101157.34
2022-11-01T23:30:20.553Z,101156.59
2022-11-01T23:32:52.961Z,101158.19
2022-11-01T23:35:25.340Z,101155.02
2022-11-01T23:37:59.896Z,101161.36
2022-11-01T23:40:34.731Z,101162.98
2022-11-01T23:43:19.545Z,101160.55
2022-11-01T23:45:52.504Z,101157.25
2022-11-01T23:48:25.559Z,101154.81
2022-11-01T23:50:57.789Z,101160.02
2022-11-01T23:53:35.482Z,101161.21
2022-11-01T23:56:10.345Z,101160.52
2022-11-01T23:58:42.817Z,101160.67
